Rives, MO (63875)

11:18 CST le 24 février 2017 (GMT -0600)
KC0UFP WX | | Change Station

Alt. 262 ft 36.21 °N, 90.07 °W | Updated 1 minute ago

Nuageux
Nuageux
67.8 ° F
Paraît 67.8 ° F
N
17.7
Vent Variable Vent de Ouest
Gusts 22.4 mph

Aujourd'hui
Haut(e) -- | Bas -- ° F
--% Risque de précip.
Hier
Haut(e) -- | Bas -- ° F
Precip. -- pouce
Pression 29.66 pouce
Visibilité 10.0 Miles terrestres
Nuages Nuages épars 2600 ft
Point de rosée 61 ° F
Humidité 78%
Précipitations 0.00 pouce
Profondeur de la couche neigeuse Non disponible.
6:36 AM 5:50 PM
Lune descendante, 4% visible
METAR KBYH 241650Z 21025G35KT 10SM SCT026 20/13 A2966
Pression 29.66 pouce
Visibilité 10.0 Miles terrestres
Nuages Nuages épars 2600 ft
Point de rosée 61 ° F
Humidité 78%
Précipitations 0.00 pouce
Profondeur de la couche neigeuse Non disponible.
6:36 AM 5:50 PM
Lune descendante, 4% visible
METAR KBYH 241650Z 21025G35KT 10SM SCT026 20/13 A2966

Get Your Daily Forecast Email!

Thanks for signing up!

Be on the lookout for a verification email in your inbox.

You'll start receiving the daily forecast at 8 AM.

×

10-Day Weather Forecast

Almanac

Astronomie

Feb. 24, 2017 Lever Coucher
Temps réel
Crépuscule civil
Crépuscule nautique
Crépuscule astronomique
Lune
Durée de lumière visible
Longueur du jour
Tomorrow will be .
, % of the Moon is Illuminated

Extrêmes aujourd'hui

State Highs State Lows

Community

WunderPhotos

Upload Photos

1,962,540 Photos téléchargées !

WunderBlog® & News

Nearby

Qualité de l'air

  Qualité de l'air Indice de la qualité de l'air Polluant
Not available.

Épaisseur de neige

Station Depth Altitude

Activité sismique

Ville Distance Mag. Time & Date
Minimum magnitude displayed is 2.5.

Températures des eaux côtières

Lieu Température

Stations

Stations météo à proximité

Emplacement de la station Température Refroidissement éolien Point de rosée Humidité Vent Precip. Alt. Mise à jour Type
                   

Watches & Warnings

There are currently no watches in effect.